createdAt,value
2022-10-02T00:00:22.272Z,84.70
2022-10-02T00:01:17.566Z,84.80
2022-10-02T00:02:20.578Z,84.40
2022-10-02T00:03:21.734Z,84.90
2022-10-02T00:04:21.140Z,85.10
2022-10-02T00:05:21.393Z,85.10
2022-10-02T00:06:21.115Z,85.50
2022-10-02T00:07:18.812Z,85.60
2022-10-02T00:08:23.892Z,85.90
2022-10-02T00:09:18.904Z,86.00
2022-10-02T00:10:20.611Z,86.10
2022-10-02T00:11:20.700Z,85.90
2022-10-02T00:12:24.191Z,85.90
2022-10-02T00:13:20.231Z,86.40
2022-10-02T00:14:18.544Z,86.90
2022-10-02T00:15:20.769Z,87.20
2022-10-02T00:16:20.962Z,86.60
2022-10-02T00:17:20.197Z,86.60
2022-10-02T00:18:19.954Z,87.20
2022-10-02T00:19:18.195Z,87.50
2022-10-02T00:20:21.635Z,87.80
2022-10-02T00:21:18.121Z,87.80
2022-10-02T00:22:18.914Z,87.40
2022-10-02T00:23:19.824Z,87.60
2022-10-02T00:24:20.870Z,87.70
2022-10-02T00:25:18.481Z,88.00
2022-10-02T00:26:21.930Z,88.30
2022-10-02T00:27:18.411Z,88.20
2022-10-02T00:28:20.383Z,88.20
2022-10-02T00:29:21.480Z,88.20
2022-10-02T00:30:21.195Z,88.10
2022-10-02T00:31:20.222Z,88.40
2022-10-02T00:32:18.958Z,88.40
2022-10-02T00:33:19.193Z,88.60
2022-10-02T00:34:21.277Z,88.60
2022-10-02T00:35:25.475Z,88.80
2022-10-02T00:36:20.972Z,88.80
2022-10-02T00:37:21.496Z,89.20
2022-10-02T00:38:19.698Z,88.90
2022-10-02T00:39:16.341Z,88.40
2022-10-02T00:40:20.077Z,88.50
2022-10-02T00:41:21.761Z,88.90
2022-10-02T00:42:20.037Z,89.20
2022-10-02T00:43:16.013Z,89.40
2022-10-02T00:44:18.640Z,89.50
2022-10-02T00:45:22.975Z,90.10
2022-10-02T00:46:20.571Z,89.90
2022-10-02T00:47:16.881Z,90.00
2022-10-02T00:48:16.001Z,90.20
2022-10-02T00:49:20.408Z,90.10
2022-10-02T00:50:20.088Z,90.20
2022-10-02T00:51:19.871Z,90.60
2022-10-02T00:52:18.438Z,90.30
2022-10-02T00:53:19.768Z,90.40
2022-10-02T00:54:21.393Z,90.70
2022-10-02T00:55:18.937Z,90.70
2022-10-02T00:56:19.771Z,90.70
2022-10-02T00:57:17.833Z,90.50
2022-10-02T00:58:18.285Z,90.60
2022-10-02T00:59:20.828Z,90.80
2022-10-02T01:00:21.345Z,90.80
2022-10-02T01:01:18.757Z,90.80
2022-10-02T01:02:19.054Z,90.70
2022-10-02T01:03:20.958Z,91.00
2022-10-02T01:04:20.781Z,90.70
2022-10-02T01:05:18.331Z,90.80
2022-10-02T01:06:19.635Z,90.70
2022-10-02T01:07:19.938Z,90.70
2022-10-02T01:08:20.608Z,90.80
2022-10-02T01:09:20.466Z,91.10
2022-10-02T01:10:19.604Z,91.10
2022-10-02T01:11:20.605Z,91.00
2022-10-02T01:12:19.996Z,91.00
2022-10-02T01:13:18.998Z,90.60
2022-10-02T01:14:22.375Z,91.10
2022-10-02T01:15:20.132Z,91.20
2022-10-02T01:16:21.776Z,91.30
2022-10-02T01:17:20.750Z,90.80
2022-10-02T01:18:21.651Z,91.20
2022-10-02T01:19:19.800Z,91.70
2022-10-02T01:20:21.162Z,91.60
2022-10-02T01:21:20.678Z,91.10
2022-10-02T01:22:20.971Z,91.30
2022-10-02T01:23:19.351Z,91.30
2022-10-02T01:24:18.748Z,91.50
2022-10-02T01:25:22.574Z,91.70
2022-10-02T01:26:17.768Z,91.60
2022-10-02T01:27:23.241Z,92.00
2022-10-02T01:28:22.169Z,92.10
2022-10-02T01:29:22.466Z,91.90
2022-10-02T01:30:20.570Z,91.50
2022-10-02T01:31:19.682Z,91.90
2022-10-02T01:32:17.835Z,91.60
2022-10-02T01:33:22.584Z,91.80
2022-10-02T01:34:22.124Z,91.60
2022-10-02T01:35:20.483Z,91.40
2022-10-02T01:36:21.756Z,91.70
2022-10-02T01:37:20.143Z,92.00
2022-10-02T01:38:20.958Z,91.80
2022-10-02T01:39:21.402Z,92.00
2022-10-02T01:40:18.450Z,91.80
2022-10-02T01:41:22.121Z,91.50
2022-10-02T01:42:19.802Z,91.60
2022-10-02T01:43:21.401Z,91.50
2022-10-02T01:44:21.895Z,91.40
2022-10-02T01:45:19.392Z,90.10
2022-10-02T01:46:19.628Z,90.30
2022-10-02T01:47:21.938Z,90.00
2022-10-02T01:48:20.379Z,90.20
2022-10-02T01:49:19.188Z,90.90
2022-10-02T01:50:18.488Z,90.60
2022-10-02T01:51:22.247Z,90.50
2022-10-02T01:52:19.329Z,89.90
2022-10-02T01:53:21.831Z,89.50
2022-10-02T01:54:20.950Z,89.90
2022-10-02T01:55:22.204Z,90.40
2022-10-02T01:56:20.946Z,90.10
2022-10-02T01:57:18.868Z,90.70
2022-10-02T01:58:18.462Z,90.60
2022-10-02T01:59:19.962Z,90.60
2022-10-02T02:00:19.301Z,90.10
2022-10-02T02:01:20.326Z,90.20
2022-10-02T02:02:21.666Z,90.70
2022-10-02T02:03:21.327Z,90.80
2022-10-02T02:04:19.430Z,91.20
2022-10-02T02:05:22.148Z,90.80
2022-10-02T02:06:21.788Z,90.80
2022-10-02T02:07:23.063Z,91.40
2022-10-02T02:08:20.646Z,91.50
2022-10-02T02:09:22.555Z,90.80
2022-10-02T02:10:21.747Z,91.00
2022-10-02T02:11:21.329Z,91.00
2022-10-02T02:12:22.766Z,90.80
2022-10-02T02:13:22.028Z,91.60
2022-10-02T02:14:19.612Z,91.50
2022-10-02T02:15:22.576Z,91.80
2022-10-02T02:16:20.529Z,91.80
2022-10-02T02:17:22.264Z,91.90
2022-10-02T02:18:20.877Z,91.40
2022-10-02T02:19:22.115Z,91.10
2022-10-02T02:20:22.568Z,91.00
2022-10-02T02:21:22.166Z,90.80
2022-10-02T02:22:19.586Z,90.80
2022-10-02T02:23:19.541Z,90.40
2022-10-02T02:24:22.752Z,90.50
2022-10-02T02:25:22.943Z,90.50
2022-10-02T02:26:18.209Z,90.10
2022-10-02T02:27:19.719Z,90.40
2022-10-02T02:28:23.346Z,90.40
2022-10-02T02:29:22.016Z,90.00
2022-10-02T02:30:22.068Z,90.10
2022-10-02T02:31:20.139Z,90.40
2022-10-02T02:32:22.125Z,90.60
2022-10-02T02:33:22.187Z,90.30
2022-10-02T02:34:19.543Z,90.50
2022-10-02T02:35:21.776Z,90.20
2022-10-02T02:36:23.579Z,90.50
2022-10-02T02:37:22.165Z,90.70
2022-10-02T02:38:20.472Z,90.20
2022-10-02T02:39:19.913Z,90.40
2022-10-02T02:40:21.579Z,90.60
2022-10-02T02:41:22.115Z,90.60
2022-10-02T02:42:25.158Z,91.00
2022-10-02T02:43:21.785Z,90.90
2022-10-02T02:44:19.380Z,90.80
2022-10-02T02:45:23.367Z,90.80
2022-10-02T02:46:20.565Z,90.70
2022-10-02T02:47:19.040Z,90.60
2022-10-02T02:48:21.994Z,90.90
2022-10-02T02:49:18.653Z,90.80
2022-10-02T02:50:23.232Z,90.80
2022-10-02T02:51:21.938Z,90.80
2022-10-02T02:52:18.616Z,91.10
2022-10-02T02:53:22.291Z,91.20
2022-10-02T02:54:21.482Z,91.20
2022-10-02T02:55:22.061Z,91.50
2022-10-02T02:56:18.736Z,91.50
2022-10-02T02:57:22.071Z,91.10
2022-10-02T02:58:22.154Z,91.30
2022-10-02T02:59:22.300Z,91.00
2022-10-02T03:00:21.629Z,90.90
2022-10-02T03:01:20.447Z,91.00
2022-10-02T03:02:22.537Z,91.20
2022-10-02T03:03:20.914Z,91.10
2022-10-02T03:04:20.473Z,90.90
2022-10-02T03:05:21.275Z,91.00
2022-10-02T03:06:20.942Z,90.90
2022-10-02T03:07:21.064Z,91.10
2022-10-02T03:08:21.165Z,90.90
2022-10-02T03:09:21.217Z,90.90
2022-10-02T03:10:21.838Z,91.00
2022-10-02T03:11:22.340Z,91.10
2022-10-02T03:12:21.106Z,91.30
2022-10-02T03:13:21.542Z,91.70
2022-10-02T03:14:21.677Z,91.70
2022-10-02T03:15:22.030Z,91.30
2022-10-02T03:16:21.792Z,91.10
2022-10-02T03:17:21.870Z,91.20
2022-10-02T03:18:20.998Z,91.50
2022-10-02T03:19:19.516Z,91.30
2022-10-02T03:20:22.484Z,91.40
2022-10-02T03:21:21.196Z,91.90
2022-10-02T03:22:22.107Z,91.90
2022-10-02T03:23:20.934Z,92.00
2022-10-02T03:24:13.926Z,92.20
2022-10-02T03:25:13.176Z,92.50
2022-10-02T03:26:13.387Z,92.70
2022-10-02T03:27:13.324Z,92.70
2022-10-02T03:28:13.601Z,92.70
2022-10-02T03:29:13.468Z,92.90
2022-10-02T03:30:13.357Z,93.10
2022-10-02T03:31:13.615Z,93.60
2022-10-02T03:32:13.508Z,93.80
2022-10-02T03:33:13.341Z,93.70
2022-10-02T03:34:13.248Z,93.60
2022-10-02T03:35:13.206Z,93.60
2022-10-02T03:36:13.182Z,93.60
2022-10-02T03:37:13.060Z,93.70
2022-10-02T03:38:13.366Z,93.80
2022-10-02T03:39:24.822Z,93.50
2022-10-02T03:40:13.776Z,93.30
2022-10-02T03:41:13.811Z,93.10
2022-10-02T03:42:13.783Z,93.50
2022-10-02T03:43:13.698Z,93.50
2022-10-02T03:44:13.541Z,93.40
2022-10-02T03:45:27.254Z,92.90
2022-10-02T03:46:13.159Z,93.00
2022-10-02T03:47:13.099Z,93.00
2022-10-02T03:48:13.018Z,93.00
2022-10-02T03:49:12.976Z,92.70
2022-10-02T03:50:12.850Z,93.00
2022-10-02T03:51:13.820Z,92.70
2022-10-02T03:52:13.734Z,92.10
2022-10-02T03:53:14.004Z,92.60
2022-10-02T03:54:13.012Z,93.00
2022-10-02T03:55:13.100Z,92.70
2022-10-02T03:56:13.138Z,92.80
2022-10-02T03:57:14.213Z,92.70
2022-10-02T03:58:13.453Z,92.60
2022-10-02T03:59:13.864Z,92.40
2022-10-02T04:00:14.057Z,91.20
2022-10-02T04:01:13.098Z,92.10
2022-10-02T04:02:13.112Z,91.00
2022-10-02T04:03:13.164Z,90.70
2022-10-02T04:04:13.183Z,90.60
2022-10-02T04:05:13.119Z,90.80
2022-10-02T04:06:13.016Z,91.00
2022-10-02T04:07:12.935Z,91.40
2022-10-02T04:08:12.979Z,91.20
2022-10-02T04:09:12.996Z,90.70
2022-10-02T04:10:13.205Z,90.30
2022-10-02T04:11:13.285Z,90.30
2022-10-02T04:12:13.447Z,90.50
2022-10-02T04:13:13.570Z,90.00
2022-10-02T04:14:13.622Z,90.30
2022-10-02T04:15:13.734Z,90.80
2022-10-02T04:16:13.899Z,90.70
2022-10-02T04:17:12.946Z,90.90
2022-10-02T04:18:13.071Z,90.80
2022-10-02T04:19:13.237Z,90.40
2022-10-02T04:20:13.257Z,90.00
2022-10-02T04:21:18.403Z,89.60
2022-10-02T04:22:13.473Z,89.80
2022-10-02T04:23:13.427Z,89.80
2022-10-02T04:24:13.308Z,90.60
2022-10-02T04:25:13.200Z,90.60
2022-10-02T04:26:13.353Z,90.40
2022-10-02T04:27:13.244Z,90.10
2022-10-02T04:28:13.624Z,90.00
2022-10-02T04:29:13.622Z,90.50
2022-10-02T04:30:13.649Z,90.20
2022-10-02T04:31:13.981Z,89.30
2022-10-02T04:32:12.873Z,89.10
2022-10-02T04:33:12.776Z,89.80
2022-10-02T04:34:13.831Z,90.20
2022-10-02T04:35:14.000Z,89.50
2022-10-02T04:36:13.064Z,89.20
2022-10-02T04:37:12.990Z,89.70
2022-10-02T04:38:13.089Z,89.80
2022-10-02T04:39:13.092Z,89.90
2022-10-02T04:40:13.036Z,90.60
2022-10-02T04:41:12.981Z,89.90
2022-10-02T04:42:13.318Z,90.20
2022-10-02T04:43:13.195Z,90.40
2022-10-02T04:44:14.126Z,90.20
2022-10-02T04:45:12.976Z,90.30
2022-10-02T04:46:13.247Z,90.00
2022-10-02T04:47:13.564Z,90.10
2022-10-02T04:48:13.695Z,90.20
2022-10-02T04:49:13.611Z,89.80
2022-10-02T04:50:13.845Z,90.20
2022-10-02T04:51:13.776Z,90.00
2022-10-02T04:52:13.849Z,90.20
2022-10-02T04:53:13.807Z,90.00
2022-10-02T04:54:13.802Z,89.80
2022-10-02T04:55:13.983Z,89.70
2022-10-02T04:56:12.908Z,89.40
2022-10-02T04:57:13.255Z,90.00
2022-10-02T04:58:13.190Z,89.10
2022-10-02T04:59:13.198Z,89.60
2022-10-02T05:00:13.142Z,89.70
2022-10-02T05:01:13.499Z,89.70
2022-10-02T05:02:13.526Z,89.60
2022-10-02T05:03:13.750Z,89.50
2022-10-02T05:04:13.777Z,89.00
2022-10-02T05:05:13.780Z,89.10
2022-10-02T05:06:13.587Z,89.30
2022-10-02T05:07:13.481Z,89.10
2022-10-02T05:08:13.898Z,88.80
2022-10-02T05:09:12.928Z,88.40
2022-10-02T05:10:12.889Z,88.40
2022-10-02T05:11:13.313Z,88.20
2022-10-02T05:12:13.592Z,88.00
2022-10-02T05:13:13.629Z,88.00
2022-10-02T05:14:14.468Z,87.80
2022-10-02T05:15:13.495Z,87.80
2022-10-02T05:16:13.532Z,88.40
2022-10-02T05:17:14.093Z,88.30
2022-10-02T05:18:17.751Z,88.30
2022-10-02T05:19:13.052Z,88.00
2022-10-02T05:20:12.904Z,87.70
2022-10-02T05:21:12.891Z,87.90
2022-10-02T05:22:13.876Z,87.80
2022-10-02T05:23:13.754Z,87.80
2022-10-02T05:24:14.085Z,87.70
2022-10-02T05:25:13.389Z,87.80
2022-10-02T05:26:14.512Z,87.70
2022-10-02T05:27:13.835Z,87.80
2022-10-02T05:28:13.981Z,87.70
2022-10-02T05:29:14.045Z,87.70
2022-10-02T05:30:13.231Z,87.70
2022-10-02T05:31:13.314Z,88.30
2022-10-02T05:32:13.245Z,87.90
2022-10-02T05:33:13.508Z,87.20
2022-10-02T05:34:13.294Z,87.50
2022-10-02T05:35:13.537Z,88.10
2022-10-02T05:36:13.389Z,88.40
2022-10-02T05:37:13.307Z,88.40
2022-10-02T05:38:13.716Z,88.00
2022-10-02T05:39:13.651Z,87.70
2022-10-02T05:40:13.544Z,87.90
2022-10-02T05:41:13.549Z,88.20
2022-10-02T05:42:13.629Z,88.60
2022-10-02T05:43:13.907Z,88.40
2022-10-02T05:44:12.782Z,87.70
2022-10-02T05:45:13.847Z,87.30
2022-10-02T05:46:13.741Z,88.40
2022-10-02T05:47:13.755Z,89.10
2022-10-02T05:48:13.754Z,89.20
2022-10-02T05:49:13.757Z,89.20
2022-10-02T05:50:13.754Z,88.90
2022-10-02T05:51:13.704Z,89.10
2022-10-02T05:52:13.572Z,89.00
2022-10-02T05:53:13.422Z,88.70
2022-10-02T05:54:13.328Z,88.40
2022-10-02T05:55:13.341Z,88.30
2022-10-02T05:56:13.286Z,88.50
2022-10-02T05:57:13.321Z,88.20
2022-10-02T05:58:13.658Z,88.30
2022-10-02T05:59:13.727Z,88.30
2022-10-02T06:00:13.921Z,88.30
2022-10-02T06:01:13.008Z,88.30
2022-10-02T06:02:13.111Z,88.10
2022-10-02T06:03:13.184Z,88.00
2022-10-02T06:04:13.170Z,88.40
2022-10-02T06:05:13.291Z,88.10
2022-10-02T06:06:13.318Z,88.00
2022-10-02T06:07:13.311Z,88.20
2022-10-02T06:08:13.213Z,88.20
2022-10-02T06:09:17.678Z,88.80
2022-10-02T06:10:13.180Z,88.60
2022-10-02T06:11:13.098Z,89.00
2022-10-02T06:12:12.934Z,89.40
2022-10-02T06:13:12.810Z,89.10
2022-10-02T06:14:13.887Z,89.30
2022-10-02T06:15:13.930Z,89.30
2022-10-02T06:16:17.958Z,89.40
2022-10-02T06:17:12.923Z,89.30
2022-10-02T06:18:13.140Z,89.40
2022-10-02T06:19:13.512Z,89.70
2022-10-02T06:20:13.724Z,89.60
2022-10-02T06:21:13.895Z,89.30
2022-10-02T06:22:13.210Z,89.20
2022-10-02T06:23:13.323Z,89.30
2022-10-02T06:24:13.350Z,89.30
2022-10-02T06:25:13.355Z,89.50
2022-10-02T06:26:13.304Z,89.30
2022-10-02T06:27:13.194Z,89.70
2022-10-02T06:28:13.398Z,89.50
2022-10-02T06:29:17.532Z,89.40
2022-10-02T06:30:13.099Z,89.10
2022-10-02T06:31:12.999Z,89.10
2022-10-02T06:33:44.147Z,89.80
2022-10-02T06:34:13.231Z,89.70
2022-10-02T06:35:13.130Z,89.60
2022-10-02T06:36:13.115Z,89.80
2022-10-02T06:37:12.985Z,89.60
2022-10-02T06:38:12.928Z,89.20
2022-10-02T06:39:13.224Z,89.30
2022-10-02T06:40:13.246Z,89.60
2022-10-02T06:41:13.110Z,89.50
2022-10-02T06:42:13.097Z,89.60
2022-10-02T06:43:13.163Z,89.00
2022-10-02T06:44:13.092Z,89.40
2022-10-02T06:45:13.098Z,89.70
2022-10-02T06:46:13.169Z,89.30
2022-10-02T06:47:13.177Z,89.20
2022-10-02T06:48:13.405Z,89.30
2022-10-02T06:49:13.287Z,89.40
2022-10-02T06:50:13.206Z,89.20
2022-10-02T06:51:13.145Z,88.70
2022-10-02T06:52:12.943Z,88.90
2022-10-02T06:53:12.887Z,88.50
2022-10-02T06:54:13.179Z,88.50
2022-10-02T06:55:13.309Z,88.50
2022-10-02T06:56:13.614Z,88.50
2022-10-02T06:57:13.658Z,88.30
2022-10-02T06:58:13.948Z,88.20
2022-10-02T06:59:13.109Z,88.00
2022-10-02T07:00:13.049Z,88.00
2022-10-02T07:01:13.440Z,88.50
2022-10-02T07:02:13.513Z,88.20
2022-10-02T07:03:13.577Z,88.10
2022-10-02T07:04:14.132Z,87.50
2022-10-02T07:05:13.100Z,87.80
2022-10-02T07:06:13.203Z,88.30
2022-10-02T07:07:16.051Z,88.50
2022-10-02T07:08:13.108Z,88.70
2022-10-02T07:09:13.512Z,89.00
2022-10-02T07:10:13.852Z,88.70
2022-10-02T07:11:14.136Z,88.90
2022-10-02T07:12:13.227Z,88.90
2022-10-02T07:13:13.432Z,88.90
2022-10-02T07:14:13.411Z,89.00
2022-10-02T07:15:13.334Z,89.50
2022-10-02T07:16:13.463Z,89.60
2022-10-02T07:17:13.378Z,89.60
2022-10-02T07:18:13.504Z,89.60
2022-10-02T07:19:13.663Z,89.70
2022-10-02T07:20:13.547Z,90.20
2022-10-02T07:21:13.493Z,90.00
2022-10-02T07:22:32.733Z,90.00
2022-10-02T07:23:14.142Z,90.20
2022-10-02T07:24:13.126Z,90.40
2022-10-02T07:25:13.061Z,90.30
2022-10-02T07:26:13.552Z,91.10
2022-10-02T07:27:13.820Z,91.20
2022-10-02T07:28:14.192Z,91.30
2022-10-02T07:29:13.369Z,91.30
2022-10-02T07:30:14.567Z,91.60
2022-10-02T07:31:13.637Z,91.00
2022-10-02T07:32:13.594Z,90.40
2022-10-02T07:33:13.664Z,90.20
2022-10-02T07:34:14.287Z,89.90
2022-10-02T07:35:13.323Z,89.80
2022-10-02T07:36:13.477Z,90.00
2022-10-02T07:37:13.503Z,89.80
2022-10-02T07:38:13.703Z,89.50
2022-10-02T07:39:13.868Z,89.90
2022-10-02T07:40:13.741Z,89.70
2022-10-02T07:41:13.732Z,89.30
2022-10-02T07:42:13.639Z,89.30
2022-10-02T07:43:13.478Z,89.60
2022-10-02T07:44:13.585Z,89.90
2022-10-02T07:45:13.547Z,89.70
2022-10-02T07:46:13.745Z,90.00
2022-10-02T07:47:13.714Z,89.80
2022-10-02T07:48:13.709Z,89.60
2022-10-02T07:49:14.174Z,89.90
2022-10-02T07:50:13.320Z,89.40
2022-10-02T07:51:16.091Z,89.40
2022-10-02T07:52:12.935Z,89.60
2022-10-02T07:53:12.865Z,89.50
2022-10-02T07:54:13.697Z,89.40
2022-10-02T07:55:13.880Z,89.50
2022-10-02T07:56:14.198Z,89.40
2022-10-02T07:57:13.273Z,89.90
2022-10-02T07:58:13.269Z,90.70
2022-10-02T07:59:13.571Z,91.10
2022-10-02T08:00:13.549Z,91.40
2022-10-02T08:01:13.760Z,91.20
2022-10-02T08:02:14.181Z,91.70
2022-10-02T08:03:13.265Z,92.10
2022-10-02T08:04:13.560Z,92.00
2022-10-02T08:05:13.471Z,91.40
2022-10-02T08:06:13.592Z,91.90
2022-10-02T08:07:13.583Z,92.10
2022-10-02T08:08:13.442Z,92.30
2022-10-02T08:09:13.626Z,92.10
2022-10-02T08:10:13.703Z,92.00
2022-10-02T08:11:13.988Z,92.10
2022-10-02T08:12:13.026Z,91.40
2022-10-02T08:13:13.113Z,90.60
2022-10-02T08:14:13.059Z,91.00
2022-10-02T08:15:13.405Z,90.80
2022-10-02T08:16:13.694Z,90.80
2022-10-02T08:17:13.812Z,91.70
2022-10-02T08:18:33.105Z,91.00
2022-10-02T08:19:13.187Z,90.80
2022-10-02T08:20:13.194Z,91.00
2022-10-02T08:21:13.059Z,90.50
2022-10-02T08:22:13.333Z,89.50
2022-10-02T08:23:14.485Z,88.80
2022-10-02T08:24:13.545Z,88.80
2022-10-02T08:25:13.601Z,88.50
2022-10-02T08:26:15.081Z,88.70
2022-10-02T08:27:13.045Z,88.90
2022-10-02T08:28:13.064Z,88.50
2022-10-02T08:29:13.097Z,87.90
2022-10-02T08:30:18.221Z,86.70
2022-10-02T08:31:13.611Z,85.50
2022-10-02T08:32:13.577Z,85.30
2022-10-02T08:33:13.768Z,84.80
2022-10-02T08:34:13.841Z,84.70
2022-10-02T08:35:13.796Z,84.50
2022-10-02T08:36:13.798Z,84.60
2022-10-02T08:37:13.736Z,85.50
2022-10-02T08:38:14.008Z,85.60
2022-10-02T08:39:13.129Z,86.20
2022-10-02T08:40:13.130Z,86.50
2022-10-02T08:41:13.781Z,86.40
2022-10-02T08:42:25.013Z,87.30
2022-10-02T08:43:13.527Z,86.40
2022-10-02T08:44:13.539Z,86.30
2022-10-02T08:45:13.509Z,85.90
2022-10-02T08:46:13.596Z,85.90
2022-10-02T08:47:13.594Z,85.50
2022-10-02T08:48:13.510Z,85.10
2022-10-02T08:49:13.499Z,85.60
2022-10-02T08:51:14.003Z,84.70
2022-10-02T08:52:40.225Z,85.00
2022-10-02T08:53:14.617Z,85.30
2022-10-02T08:54:29.623Z,85.00
2022-10-02T08:55:13.880Z,85.30
2022-10-02T08:56:19.185Z,85.00
2022-10-02T08:57:13.058Z,85.00
2022-10-02T08:58:18.285Z,84.80
2022-10-02T08:59:15.241Z,84.50
2022-10-02T09:00:13.389Z,85.40
2022-10-02T09:01:13.623Z,85.60
2022-10-02T09:02:13.572Z,85.80
2022-10-02T09:03:13.708Z,86.30
2022-10-02T09:04:14.071Z,86.60
2022-10-02T09:05:23.178Z,86.20
2022-10-02T09:06:13.228Z,86.50
2022-10-02T09:07:13.471Z,86.10
2022-10-02T09:08:13.397Z,85.90
2022-10-02T09:09:13.363Z,85.60
2022-10-02T09:10:13.393Z,85.20
2022-10-02T09:11:13.498Z,85.20
2022-10-02T09:13:13.362Z,84.10
2022-10-02T09:14:13.334Z,84.10
2022-10-02T09:15:13.443Z,84.20
2022-10-02T09:16:13.627Z,83.70
2022-10-02T09:17:13.495Z,83.10
2022-10-02T09:18:13.463Z,83.50
2022-10-02T09:19:13.746Z,83.90
2022-10-02T09:20:13.908Z,83.60
2022-10-02T09:21:13.179Z,83.70
2022-10-02T09:22:18.310Z,83.70
2022-10-02T09:23:13.415Z,83.70
2022-10-02T09:24:13.474Z,82.80
2022-10-02T09:25:13.536Z,82.70
2022-10-02T09:26:13.390Z,82.70
2022-10-02T09:27:13.987Z,82.10
2022-10-02T09:28:51.579Z,81.70
2022-10-02T09:29:15.209Z,81.30
2022-10-02T09:30:13.465Z,80.90
2022-10-02T09:31:13.530Z,80.10
2022-10-02T09:32:13.862Z,78.80
2022-10-02T09:33:16.010Z,78.00
2022-10-02T09:34:13.530Z,78.20
2022-10-02T09:35:13.506Z,78.80
2022-10-02T09:36:13.442Z,79.40
2022-10-02T09:37:13.312Z,79.40
2022-10-02T09:38:16.788Z,78.80
2022-10-02T09:39:33.910Z,78.70
2022-10-02T09:40:17.966Z,78.70
2022-10-02T09:41:12.855Z,78.60
2022-10-02T09:42:13.778Z,79.60
2022-10-02T09:43:13.842Z,79.20
2022-10-02T09:44:13.711Z,78.70
2022-10-02T09:45:23.641Z,78.90
2022-10-02T09:46:29.736Z,78.80
2022-10-02T09:47:14.020Z,78.60
2022-10-02T09:48:14.146Z,78.60
2022-10-02T09:49:13.289Z,79.00
2022-10-02T09:50:13.672Z,78.70
2022-10-02T09:51:13.984Z,78.50
2022-10-02T09:52:13.382Z,79.00
2022-10-02T09:53:13.605Z,79.20
2022-10-02T09:54:13.639Z,80.00
2022-10-02T09:55:13.952Z,81.50
2022-10-02T09:56:12.927Z,80.10
2022-10-02T09:57:22.870Z,81.50
2022-10-02T09:58:12.898Z,81.30
2022-10-02T09:59:13.338Z,83.20
2022-10-02T10:00:13.931Z,84.70
2022-10-02T10:01:13.105Z,85.30
2022-10-02T10:02:13.043Z,87.10
2022-10-02T10:03:13.013Z,88.40
2022-10-02T10:04:17.966Z,88.80
2022-10-02T10:06:13.133Z,89.00
2022-10-02T10:07:16.305Z,88.90
2022-10-02T10:08:13.143Z,88.80
2022-10-02T10:09:13.774Z,89.50
2022-10-02T10:10:15.851Z,90.20
2022-10-02T10:11:13.320Z,90.60
2022-10-02T10:12:13.303Z,90.90
2022-10-02T10:13:13.513Z,91.20
2022-10-02T10:14:13.502Z,90.60
2022-10-02T10:15:13.506Z,90.10
2022-10-02T10:16:13.995Z,89.60
2022-10-02T10:17:17.998Z,87.60
2022-10-02T10:18:14.467Z,86.20
2022-10-02T10:19:13.837Z,86.60
2022-10-02T10:20:13.854Z,86.90
2022-10-02T10:21:13.924Z,87.70
2022-10-02T10:22:13.245Z,88.00
2022-10-02T10:23:13.112Z,88.60
2022-10-02T10:24:13.046Z,88.90
2022-10-02T10:25:12.888Z,88.70
2022-10-02T10:26:13.891Z,89.30
2022-10-02T10:27:13.224Z,89.40
2022-10-02T10:28:13.224Z,88.50
2022-10-02T10:29:13.530Z,88.00
2022-10-02T10:30:13.494Z,87.70
2022-10-02T10:31:13.452Z,87.90
2022-10-02T10:32:13.709Z,88.10
2022-10-02T10:33:19.001Z,88.50
2022-10-02T10:34:13.023Z,87.90
2022-10-02T10:35:12.925Z,87.80
2022-10-02T10:36:12.794Z,87.90
2022-10-02T10:37:13.840Z,86.40
2022-10-02T10:38:13.677Z,86.30
2022-10-02T10:39:14.080Z,85.50
2022-10-02T10:40:13.025Z,85.60
2022-10-02T10:41:12.953Z,84.50
2022-10-02T10:42:13.229Z,84.10
2022-10-02T10:43:16.566Z,85.60
2022-10-02T10:44:12.942Z,84.60
2022-10-02T10:45:12.976Z,84.50
2022-10-02T10:46:12.990Z,83.60
2022-10-02T10:47:13.020Z,83.60
2022-10-02T10:48:13.067Z,81.50
2022-10-02T10:49:13.108Z,80.80
2022-10-02T10:50:13.068Z,79.80
2022-10-02T10:51:13.057Z,79.50
2022-10-02T10:52:13.145Z,78.30
2022-10-02T10:53:13.214Z,77.80
2022-10-02T10:54:13.291Z,78.50
2022-10-02T10:55:18.236Z,78.10
2022-10-02T10:56:27.070Z,79.10
2022-10-02T10:57:13.031Z,79.80
2022-10-02T10:58:13.060Z,79.50
2022-10-02T10:59:13.173Z,78.50
2022-10-02T11:00:13.478Z,80.50
2022-10-02T11:01:27.095Z,78.60
2022-10-02T11:02:13.320Z,77.70
2022-10-02T11:03:18.770Z,76.60
2022-10-02T11:04:14.410Z,78.50
2022-10-02T11:05:13.556Z,79.90
2022-10-02T11:06:13.700Z,79.70
2022-10-02T11:07:13.832Z,81.10
2022-10-02T11:08:14.131Z,80.10
2022-10-02T11:09:13.071Z,80.50
2022-10-02T11:10:12.974Z,80.10
2022-10-02T11:11:12.967Z,79.30
2022-10-02T11:12:13.150Z,79.20
2022-10-02T11:13:13.378Z,79.00
2022-10-02T11:14:13.268Z,77.00
2022-10-02T11:15:13.491Z,74.60
2022-10-02T11:16:15.269Z,76.10
2022-10-02T11:17:13.661Z,76.80
2022-10-02T11:18:13.637Z,78.40
2022-10-02T11:19:16.760Z,78.40
2022-10-02T11:20:13.253Z,78.60
2022-10-02T11:21:13.134Z,79.10
2022-10-02T11:22:13.368Z,77.60
2022-10-02T11:23:13.503Z,74.90
2022-10-02T11:24:13.587Z,73.30
2022-10-02T11:25:13.447Z,71.50
2022-10-02T11:26:13.541Z,70.30
2022-10-02T11:27:23.107Z,68.30
2022-10-02T11:28:13.095Z,66.90
2022-10-02T11:29:13.188Z,66.70
2022-10-02T11:30:13.229Z,68.40
2022-10-02T11:31:13.460Z,71.00
2022-10-02T11:32:13.643Z,71.80
2022-10-02T11:33:13.689Z,72.60
2022-10-02T11:34:13.659Z,71.90
2022-10-02T11:35:13.556Z,71.80
2022-10-02T11:36:25.049Z,72.30
2022-10-02T11:37:24.775Z,72.70
2022-10-02T11:38:14.041Z,71.00
2022-10-02T11:39:13.125Z,64.30
2022-10-02T11:40:18.971Z,64.80
2022-10-02T11:41:13.192Z,65.20
2022-10-02T11:42:13.086Z,62.00
2022-10-02T11:43:13.286Z,61.50
2022-10-02T11:44:13.179Z,63.40
2022-10-02T11:45:18.221Z,63.40
2022-10-02T11:46:13.177Z,62.60
2022-10-02T11:47:13.060Z,63.40
2022-10-02T11:48:13.032Z,63.80
2022-10-02T11:49:13.251Z,63.90
2022-10-02T11:50:13.362Z,64.40
2022-10-02T11:51:13.257Z,63.90
2022-10-02T11:52:13.168Z,63.30
2022-10-02T11:53:13.392Z,63.80
2022-10-02T11:54:13.280Z,63.60
2022-10-02T11:55:13.277Z,64.40
2022-10-02T11:56:13.279Z,64.60
2022-10-02T11:57:13.264Z,65.20
2022-10-02T11:58:13.271Z,65.00
2022-10-02T11:59:13.180Z,64.60
2022-10-02T12:00:13.158Z,64.40
2022-10-02T12:01:13.150Z,63.40
2022-10-02T12:02:16.381Z,63.30
2022-10-02T12:03:14.136Z,62.00
2022-10-02T12:04:13.256Z,61.50
2022-10-02T12:06:18.007Z,61.90
2022-10-02T12:07:16.891Z,59.90
2022-10-02T12:08:14.197Z,61.30
2022-10-02T12:09:13.320Z,59.90
2022-10-02T12:10:14.379Z,58.70
2022-10-02T12:11:13.433Z,59.70
2022-10-02T12:13:13.697Z,60.30
2022-10-02T12:14:14.080Z,60.20
2022-10-02T12:15:13.598Z,59.90
2022-10-02T12:16:13.649Z,59.40
2022-10-02T12:17:13.814Z,59.20
2022-10-02T12:18:18.243Z,60.60
2022-10-02T12:19:12.954Z,60.70
2022-10-02T12:20:12.872Z,60.80
2022-10-02T12:21:14.046Z,61.30
2022-10-02T12:22:13.152Z,61.50
2022-10-02T12:23:12.981Z,61.00
2022-10-02T12:24:12.973Z,61.30
2022-10-02T12:25:13.117Z,60.60
2022-10-02T12:26:13.243Z,62.30
2022-10-02T12:27:13.879Z,61.10
2022-10-02T12:28:13.773Z,61.10
2022-10-02T12:29:13.765Z,61.70
2022-10-02T12:30:13.657Z,61.30
2022-10-02T12:31:13.650Z,60.40
2022-10-02T12:32:15.083Z,60.80
2022-10-02T12:33:13.162Z,61.30
2022-10-02T12:34:13.336Z,60.80
2022-10-02T12:35:13.279Z,61.60
2022-10-02T12:36:13.186Z,62.70
2022-10-02T12:37:13.282Z,62.70
2022-10-02T12:38:13.193Z,63.10
2022-10-02T12:39:13.143Z,63.10
2022-10-02T12:40:13.262Z,63.50
2022-10-02T12:41:13.604Z,63.00
2022-10-02T12:42:13.622Z,63.20
2022-10-02T12:43:13.627Z,63.60
2022-10-02T12:44:13.693Z,63.60
2022-10-02T12:45:13.635Z,63.20
2022-10-02T12:46:13.684Z,63.90
2022-10-02T12:47:13.784Z,63.80
2022-10-02T12:48:18.824Z,63.90
2022-10-02T12:49:13.749Z,63.90
2022-10-02T12:50:13.983Z,62.80
2022-10-02T12:51:13.280Z,62.40
2022-10-02T12:52:13.150Z,61.90
2022-10-02T12:53:13.649Z,61.90
2022-10-02T12:54:15.389Z,61.10
2022-10-02T12:55:13.277Z,61.30
2022-10-02T12:56:13.492Z,60.50
2022-10-02T12:57:13.525Z,59.90
2022-10-02T12:58:18.738Z,59.60